createdAt,value
2019-05-14T00:01:31.443Z,103696.55
2019-05-14T00:04:02.065Z,103704.28
2019-05-14T00:06:31.566Z,103703.73
2019-05-14T00:09:01.460Z,103703.80
2019-05-14T00:11:32.251Z,103702.67
2019-05-14T00:14:01.512Z,103706.98
2019-05-14T00:16:31.535Z,103710.73
2019-05-14T00:19:01.683Z,103703.62
2019-05-14T00:21:31.600Z,103698.39
2019-05-14T00:24:01.840Z,103701.82
2019-05-14T00:26:31.852Z,103696.83
2019-05-14T00:29:01.736Z,103682.95
2019-05-14T00:31:31.741Z,103684.50
2019-05-14T00:34:01.781Z,103683.44
2019-05-14T00:36:31.909Z,103675.77
2019-05-14T00:39:03.438Z,103666.39
2019-05-14T00:41:32.754Z,103673.00
2019-05-14T00:44:02.031Z,103676.34
2019-05-14T00:46:32.459Z,103664.75
2019-05-14T00:49:01.899Z,103667.62
2019-05-14T00:51:31.818Z,103661.56
2019-05-14T00:54:01.777Z,103657.98
2019-05-14T00:56:32.173Z,103653.45
2019-05-14T00:59:01.532Z,103647.36
2019-05-14T01:01:31.835Z,103641.88
2019-05-14T01:04:01.412Z,103644.27
2019-05-14T01:06:31.512Z,103649.70
2019-05-14T01:09:02.182Z,103650.61
2019-05-14T01:11:32.131Z,103653.13
2019-05-14T01:14:01.819Z,103649.23
2019-05-14T01:16:31.864Z,103646.36
2019-05-14T01:19:02.046Z,103651.97
2019-05-14T01:21:31.555Z,103654.00
2019-05-14T01:24:02.011Z,103661.56
2019-05-14T01:26:31.595Z,103658.80
2019-05-14T01:29:01.414Z,103663.47
2019-05-14T01:31:31.501Z,103659.70
2019-05-14T01:34:02.155Z,103658.77
2019-05-14T01:36:32.173Z,103667.91
2019-05-14T01:39:01.910Z,103663.66
2019-05-14T01:41:32.685Z,103670.13
2019-05-14T01:44:01.991Z,103664.38
2019-05-14T01:46:31.781Z,103669.59
2019-05-14T01:49:01.787Z,103665.55
2019-05-14T01:51:31.695Z,103660.53
2019-05-14T01:54:01.609Z,103651.45
2019-05-14T01:56:31.915Z,103652.34
2019-05-14T01:59:01.830Z,103657.14
2019-05-14T02:01:31.656Z,103652.39
2019-05-14T02:04:02.360Z,103663.98
2019-05-14T02:06:31.923Z,103656.80
2019-05-14T02:09:01.952Z,103665.11
2019-05-14T02:11:32.585Z,103656.43
2019-05-14T02:14:02.381Z,103655.94
2019-05-14T02:16:31.824Z,103659.26
2019-05-14T02:19:01.494Z,103662.08
2019-05-14T02:21:31.744Z,103668.39
2019-05-14T02:24:02.011Z,103670.09
2019-05-14T02:26:31.819Z,103671.53
2019-05-14T02:29:02.008Z,103663.72
2019-05-14T02:31:31.428Z,103663.41
2019-05-14T02:34:00.688Z,103659.83
2019-05-14T02:36:30.945Z,103661.22
2019-05-14T02:39:00.726Z,103659.08
2019-05-14T02:41:30.766Z,103661.99
2019-05-14T02:44:00.078Z,103656.14
2019-05-14T02:46:29.801Z,103656.05
2019-05-14T02:48:59.627Z,103661.84
2019-05-14T02:51:29.985Z,103652.22
2019-05-14T02:53:59.689Z,103657.75
2019-05-14T02:56:29.743Z,103653.48
2019-05-14T02:59:00.028Z,103644.98
2019-05-14T03:01:30.354Z,103638.03
2019-05-14T03:03:59.972Z,103633.36
2019-05-14T03:06:29.409Z,103637.34
2019-05-14T03:08:59.939Z,103631.75
2019-05-14T03:11:31.168Z,103631.38
2019-05-14T03:14:01.187Z,103622.95
2019-05-14T03:16:35.431Z,103624.39
2019-05-14T03:19:01.551Z,103632.08
2019-05-14T03:21:31.400Z,103633.25
2019-05-14T03:24:01.065Z,103618.72
2019-05-14T03:26:30.556Z,103623.27
2019-05-14T03:29:00.316Z,103619.98
2019-05-14T03:31:32.971Z,103627.73
2019-05-14T03:34:02.814Z,103623.94
2019-05-14T03:36:34.378Z,103621.75
2019-05-14T03:39:02.797Z,103617.61
2019-05-14T03:41:32.096Z,103614.89
2019-05-14T03:44:01.385Z,103620.16
2019-05-14T03:46:44.693Z,103619.30
2019-05-14T03:49:01.678Z,103623.87
2019-05-14T03:51:30.929Z,103622.75
2019-05-14T03:54:06.688Z,103618.65
2019-05-14T03:56:31.266Z,103614.63
2019-05-14T03:59:00.992Z,103614.63
2019-05-14T04:01:30.308Z,103616.69
2019-05-14T04:04:01.366Z,103609.73
2019-05-14T04:06:30.904Z,103606.91
2019-05-14T04:09:00.997Z,103610.05
2019-05-14T04:11:32.241Z,103610.62
2019-05-14T04:14:01.496Z,103611.24
2019-05-14T04:16:31.745Z,103607.80
2019-05-14T04:19:02.397Z,103612.94
2019-05-14T04:21:34.780Z,103599.11
2019-05-14T04:24:04.503Z,103600.31
2019-05-14T04:26:53.293Z,103597.73
2019-05-14T04:29:05.890Z,103605.39
2019-05-14T04:31:35.193Z,103601.38
2019-05-14T04:34:05.025Z,103596.11
2019-05-14T04:36:34.402Z,103590.19
2019-05-14T04:39:05.021Z,103589.63
2019-05-14T04:41:34.366Z,103587.05
2019-05-14T04:44:03.801Z,103584.14
2019-05-14T04:46:33.114Z,103592.44
2019-05-14T04:49:02.398Z,103599.90
2019-05-14T04:51:31.694Z,103601.16
2019-05-14T04:54:01.072Z,103608.44
2019-05-14T04:56:30.622Z,103604.84
2019-05-14T04:59:00.870Z,103606.67
2019-05-14T05:01:30.179Z,103605.20
2019-05-14T05:03:59.490Z,103607.28
2019-05-14T05:06:29.280Z,103609.63
2019-05-14T05:09:00.082Z,103598.14
2019-05-14T05:11:29.869Z,103598.55
2019-05-14T05:13:59.464Z,103597.91
2019-05-14T05:16:29.717Z,103595.22
2019-05-14T05:18:59.584Z,103599.93
2019-05-14T05:21:29.006Z,103594.78
2019-05-14T05:23:58.551Z,103598.72
2019-05-14T05:26:28.632Z,103598.76
2019-05-14T05:29:05.649Z,103594.83
2019-05-14T05:31:30.041Z,103603.89
2019-05-14T05:33:59.321Z,103599.55
2019-05-14T05:36:29.594Z,103594.66
2019-05-14T05:39:00.408Z,103593.82
2019-05-14T05:41:30.774Z,103590.95
2019-05-14T05:44:02.022Z,103581.22
2019-05-14T05:46:31.291Z,103587.05
2019-05-14T05:49:00.593Z,103591.45
2019-05-14T05:51:29.868Z,103591.92
2019-05-14T05:53:59.169Z,103593.42
2019-05-14T05:56:28.953Z,103602.55
2019-05-14T05:59:00.493Z,103603.74
2019-05-14T06:01:42.171Z,103584.73
2019-05-14T06:04:01.157Z,103593.72
2019-05-14T06:06:30.457Z,103591.49
2019-05-14T06:08:59.782Z,103587.79
2019-05-14T06:11:29.214Z,103588.16
2019-05-14T06:13:59.028Z,103580.99
2019-05-14T06:16:29.026Z,103581.48
2019-05-14T06:18:58.911Z,103587.27
2019-05-14T06:21:29.179Z,103589.36
2019-05-14T06:24:02.575Z,103589.71
2019-05-14T06:26:29.723Z,103584.59
2019-05-14T06:28:59.852Z,103582.85
2019-05-14T06:31:29.357Z,103588.08
2019-05-14T06:33:59.891Z,103591.70
2019-05-14T06:36:29.319Z,103593.08
2019-05-14T06:38:58.815Z,103588.87
2019-05-14T06:41:28.506Z,103589.33
2019-05-14T06:43:59.105Z,103589.30
2019-05-14T06:46:28.573Z,103591.09
2019-05-14T06:48:59.013Z,103597.27
2019-05-14T06:51:29.594Z,103591.64
2019-05-14T06:53:59.021Z,103585.87
2019-05-14T06:56:28.394Z,103592.14
2019-05-14T06:58:58.441Z,103587.39
2019-05-14T07:01:29.202Z,103586.58
2019-05-14T07:03:58.661Z,103594.25
2019-05-14T07:06:29.081Z,103594.72
2019-05-14T07:08:58.954Z,103590.98
2019-05-14T07:11:29.187Z,103584.48
2019-05-14T07:13:58.744Z,103589.20
2019-05-14T07:16:28.707Z,103586.52
2019-05-14T07:18:59.101Z,103585.58
2019-05-14T07:21:29.305Z,103594.98
2019-05-14T07:23:59.437Z,103594.45
2019-05-14T07:26:29.565Z,103587.83
2019-05-14T07:28:59.252Z,103581.74
2019-05-14T07:31:29.232Z,103580.67
2019-05-14T07:33:59.725Z,103580.62
2019-05-14T07:36:29.429Z,103589.55
2019-05-14T07:39:00.121Z,103575.42
2019-05-14T07:41:31.308Z,103570.61
2019-05-14T07:44:00.693Z,103575.59
2019-05-14T07:46:30.015Z,103572.77
2019-05-14T07:49:07.334Z,103566.48
2019-05-14T07:51:31.401Z,103564.75
2019-05-14T07:54:00.702Z,103564.75
2019-05-14T07:56:30.020Z,103561.23
2019-05-14T07:59:02.302Z,103558.02
2019-05-14T08:01:31.415Z,103569.52
2019-05-14T08:04:00.711Z,103573.05
2019-05-14T08:06:31.092Z,103570.94
2019-05-14T08:09:00.379Z,103571.44
2019-05-14T08:11:29.758Z,103576.58
2019-05-14T08:13:59.067Z,103573.71
2019-05-14T08:16:28.968Z,103570.09
2019-05-14T08:19:00.117Z,103573.55
2019-05-14T08:21:32.196Z,103577.91
2019-05-14T08:24:01.502Z,103566.56
2019-05-14T08:26:30.777Z,103563.00
2019-05-14T08:29:00.128Z,103568.59
2019-05-14T08:31:29.474Z,103565.03
2019-05-14T08:33:59.206Z,103566.73
2019-05-14T08:36:28.797Z,103574.78
2019-05-14T08:38:58.245Z,103557.27
2019-05-14T08:41:28.825Z,103558.84
2019-05-14T08:43:59.484Z,103550.89
2019-05-14T08:46:29.023Z,103550.04
2019-05-14T08:48:58.818Z,103541.36
2019-05-14T08:51:29.778Z,103537.03
2019-05-14T08:53:59.405Z,103528.75
2019-05-14T08:56:29.044Z,103530.21
2019-05-14T08:58:59.043Z,103516.53
2019-05-14T09:01:29.276Z,103509.86
2019-05-14T09:03:59.538Z,103489.34
2019-05-14T09:06:29.214Z,103502.08
2019-05-14T09:08:59.526Z,103496.87
2019-05-14T09:11:35.509Z,103494.30
2019-05-14T09:14:00.078Z,103488.74
2019-05-14T09:16:41.780Z,103489.83
2019-05-14T09:19:00.900Z,103500.91
2019-05-14T09:21:30.174Z,103506.78
2019-05-14T09:24:00.843Z,103523.25
2019-05-14T09:26:30.145Z,103508.63
2019-05-14T09:28:59.419Z,103523.69
2019-05-14T09:31:29.597Z,103522.05
2019-05-14T09:33:58.960Z,103512.70
2019-05-14T09:36:29.030Z,103513.77
2019-05-14T09:38:58.510Z,103505.80
2019-05-14T09:41:30.795Z,103502.84
2019-05-14T09:43:58.883Z,103513.16
2019-05-14T09:46:28.961Z,103513.84
2019-05-14T09:48:59.548Z,103509.25
2019-05-14T09:51:28.982Z,103494.58
2019-05-14T09:53:58.912Z,103499.64
2019-05-14T09:56:29.492Z,103504.63
2019-05-14T09:58:58.968Z,103509.61
2019-05-14T10:01:28.242Z,103512.21
2019-05-14T10:03:59.200Z,103517.08
2019-05-14T10:06:28.692Z,103507.42
2019-05-14T10:08:59.060Z,103514.40
2019-05-14T10:11:28.902Z,103500.81
2019-05-14T10:13:59.966Z,103494.93
2019-05-14T10:16:29.477Z,103499.03
2019-05-14T10:28:49.598Z,103485.21
2019-05-14T10:31:19.113Z,103478.55
2019-05-14T10:33:48.800Z,103470.20
2019-05-14T10:36:19.176Z,103455.85
2019-05-14T10:38:48.721Z,103463.53
2019-05-14T10:41:18.658Z,103459.36
2019-05-14T10:43:49.606Z,103454.41
2019-05-14T10:46:20.275Z,103453.23
2019-05-14T10:48:49.566Z,103454.26
2019-05-14T10:51:19.842Z,103441.77
2019-05-14T10:53:49.308Z,103427.03
2019-05-14T10:56:19.548Z,103441.14
2019-05-14T10:58:50.055Z,103430.37
2019-05-14T11:01:22.466Z,103431.31
2019-05-14T11:03:50.559Z,103434.98
2019-05-14T11:06:19.861Z,103424.81
2019-05-14T11:08:49.558Z,103428.87
2019-05-14T11:11:18.852Z,103425.34
2019-05-14T11:13:48.154Z,103413.54
2019-05-14T11:16:18.999Z,103415.72
2019-05-14T11:18:49.799Z,103409.64
2019-05-14T11:21:26.046Z,103413.64
2019-05-14T11:23:53.197Z,103408.41
2019-05-14T11:26:24.775Z,103401.44
2019-05-14T11:28:53.544Z,103388.44
2019-05-14T11:31:22.865Z,103393.90
2019-05-14T11:33:52.185Z,103394.69
2019-05-14T11:36:21.483Z,103386.84
2019-05-14T11:38:51.206Z,103380.58
2019-05-14T11:41:20.518Z,103366.09
2019-05-14T11:43:51.391Z,103372.32
2019-05-14T11:46:33.108Z,103366.41
2019-05-14T11:48:51.842Z,103359.34
2019-05-14T11:51:46.032Z,103351.00
2019-05-14T11:53:52.147Z,103351.00
2019-05-14T11:56:21.446Z,103360.25
2019-05-14T11:58:50.776Z,103361.50
2019-05-14T12:01:20.155Z,103360.25
2019-05-14T12:03:50.588Z,103354.73
2019-05-14T12:06:20.018Z,103348.02
2019-05-14T12:08:49.372Z,103345.17
2019-05-14T12:11:19.585Z,103346.05
2019-05-14T12:13:49.046Z,103335.69
2019-05-14T12:16:18.363Z,103333.72
2019-05-14T12:18:48.421Z,103334.42
2019-05-14T12:21:18.017Z,103330.75
2019-05-14T12:23:47.305Z,103327.56
2019-05-14T12:26:19.201Z,103319.58
2019-05-14T12:28:49.365Z,103319.67
2019-05-14T12:31:19.371Z,103305.12
2019-05-14T12:33:49.655Z,103311.05
2019-05-14T12:36:20.426Z,103298.98
2019-05-14T12:38:50.013Z,103300.50
2019-05-14T12:41:19.677Z,103305.84
2019-05-14T12:43:49.116Z,103294.09
2019-05-14T12:46:20.196Z,103285.52
2019-05-14T12:48:49.766Z,103276.23
2019-05-14T12:51:19.132Z,103288.28
2019-05-14T12:53:48.882Z,103289.53
2019-05-14T12:56:19.285Z,103292.47
2019-05-14T12:58:49.172Z,103281.23
2019-05-14T13:01:20.119Z,103272.55
2019-05-14T13:03:49.562Z,103273.80
2019-05-14T13:06:19.276Z,103270.41
2019-05-14T13:08:49.626Z,103276.34
2019-05-14T13:11:19.003Z,103275.44
2019-05-14T13:13:49.101Z,103285.93
2019-05-14T13:16:19.306Z,103270.70
2019-05-14T13:18:49.937Z,103251.98
2019-05-14T13:21:19.620Z,103238.36
2019-05-14T13:23:49.292Z,103233.16
2019-05-14T13:26:19.062Z,103222.05
2019-05-14T13:28:50.914Z,103210.81
2019-05-14T13:36:12.652Z,103217.89
2019-05-14T13:37:31.507Z,103220.49
2019-05-14T13:56:55.584Z,103188.37
2019-05-14T13:59:24.915Z,103178.38
2019-05-14T14:01:54.902Z,103180.66
2019-05-14T14:04:24.685Z,103178.88
2019-05-14T14:07:09.069Z,103172.59
2019-05-14T14:17:12.590Z,103157.89
2019-05-14T14:19:41.962Z,103146.81
2019-05-14T14:22:11.285Z,103142.94
2019-05-14T14:24:40.667Z,103133.23
2019-05-14T14:27:10.028Z,103117.09
2019-05-14T14:29:40.417Z,103126.62
2019-05-14T14:32:11.368Z,103125.44
2019-05-14T14:34:41.496Z,103118.08
2019-05-14T14:37:10.897Z,103120.12
2019-05-14T14:39:40.194Z,103127.06
2019-05-14T14:42:09.557Z,103126.34
2019-05-14T14:44:39.395Z,103125.92
2019-05-14T14:47:08.840Z,103121.80
2019-05-14T14:49:43.438Z,103124.95
2019-05-14T14:52:12.095Z,103123.16
2019-05-14T14:54:40.233Z,103119.23
2019-05-14T14:57:09.513Z,103115.70
2019-05-14T14:59:40.419Z,103112.91
2019-05-14T15:02:10.388Z,103112.53
2019-05-14T15:04:40.065Z,103112.71
2019-05-14T15:07:09.987Z,103104.11
2019-05-14T15:09:40.482Z,103096.69
2019-05-14T15:12:10.521Z,103095.22
2019-05-14T15:14:39.887Z,103096.50
2019-05-14T15:17:09.901Z,103090.39
2019-05-14T15:19:39.853Z,103088.19
2019-05-14T15:22:09.270Z,103083.48
2019-05-14T15:24:38.604Z,103079.12
2019-05-14T15:27:14.839Z,103067.95
2019-05-14T15:29:42.441Z,103065.52
2019-05-14T15:32:10.006Z,103068.86
2019-05-14T15:34:39.309Z,103061.66
2019-05-14T15:37:09.082Z,103057.50
2019-05-14T15:39:39.095Z,103052.05
2019-05-14T15:42:13.892Z,103048.69
2019-05-14T15:44:48.807Z,103043.61
2019-05-14T15:47:11.922Z,103034.06
2019-05-14T15:49:41.348Z,103029.11
2019-05-14T15:52:10.738Z,103025.88
2019-05-14T15:54:46.840Z,103028.75
2019-05-14T15:57:11.044Z,103022.20
2019-05-14T15:59:40.536Z,103020.31
2019-05-14T16:02:09.824Z,103016.64
2019-05-14T16:04:39.155Z,103017.83
2019-05-14T16:07:09.511Z,103013.25
2019-05-14T16:09:39.868Z,103008.52
2019-05-14T16:12:09.657Z,103003.35
2019-05-14T16:14:39.124Z,103008.52
2019-05-14T16:17:11.516Z,103007.31
2019-05-14T16:19:39.420Z,102999.55
2019-05-14T16:22:09.740Z,103008.16
2019-05-14T16:24:55.866Z,103000.06
2019-05-14T16:27:10.730Z,103002.44
2019-05-14T16:29:45.428Z,102998.77
2019-05-14T16:32:11.161Z,102998.12
2019-05-14T16:34:41.411Z,102996.23
2019-05-14T16:37:11.309Z,102996.37
2019-05-14T16:39:40.654Z,103000.67
2019-05-14T16:42:09.949Z,102994.48
2019-05-14T16:44:39.283Z,102997.38
2019-05-14T16:47:09.970Z,102992.70
2019-05-14T16:49:39.448Z,102990.25
2019-05-14T16:52:09.315Z,102986.56
2019-05-14T16:54:39.674Z,102987.84
2019-05-14T16:57:11.085Z,102988.45
2019-05-14T16:59:40.167Z,102995.31
2019-05-14T17:02:09.939Z,102985.70
2019-05-14T17:04:39.460Z,102992.16
2019-05-14T17:07:09.687Z,102991.94
2019-05-14T17:09:39.136Z,102986.09
2019-05-14T17:12:08.672Z,102988.61
2019-05-14T17:14:38.637Z,102985.68
2019-05-14T17:17:09.398Z,102976.11
2019-05-14T17:19:38.840Z,102975.91
2019-05-14T17:22:24.542Z,102977.27
2019-05-14T17:24:40.270Z,102980.90
2019-05-14T17:27:09.547Z,102982.28
2019-05-14T17:29:39.159Z,102973.13
2019-05-14T17:32:08.478Z,102966.56
2019-05-14T17:34:38.617Z,102956.48
2019-05-14T17:37:09.122Z,102945.06
2019-05-14T17:39:38.873Z,102941.89
2019-05-14T17:42:11.776Z,102941.00
2019-05-14T17:44:39.387Z,102947.34
2019-05-14T17:47:08.692Z,102945.70
2019-05-14T17:49:39.187Z,102940.34
2019-05-14T17:52:08.641Z,102938.36
2019-05-14T17:54:41.644Z,102935.03
2019-05-14T17:57:08.942Z,102934.66
2019-05-14T17:59:39.193Z,102936.18
2019-05-14T18:02:10.139Z,102934.80
2019-05-14T18:04:39.463Z,102927.61
2019-05-14T18:07:08.795Z,102923.89
2019-05-14T18:09:38.134Z,102924.09
2019-05-14T18:12:08.189Z,102925.13
2019-05-14T18:14:38.561Z,102928.78
2019-05-14T18:17:08.937Z,102924.36
2019-05-14T18:19:39.398Z,102915.55
2019-05-14T18:22:09.008Z,102923.77
2019-05-14T18:24:39.461Z,102917.34
2019-05-14T18:27:08.808Z,102915.75
2019-05-14T18:29:38.965Z,102912.92
2019-05-14T18:32:09.137Z,102917.53
2019-05-14T18:34:39.177Z,102915.08
2019-05-14T18:37:13.816Z,102913.68
2019-05-14T18:39:39.645Z,102912.23
2019-05-14T18:42:08.949Z,102912.56
2019-05-14T18:44:39.189Z,102906.74
2019-05-14T18:47:08.863Z,102906.70
2019-05-14T18:49:38.174Z,102906.44
2019-05-14T18:52:08.903Z,102903.38
2019-05-14T18:54:38.856Z,102907.19
2019-05-14T18:57:11.911Z,102900.70
2019-05-14T18:59:39.300Z,102900.52
2019-05-14T19:02:08.793Z,102898.89
2019-05-14T19:04:38.315Z,102906.02
2019-05-14T19:07:07.792Z,102902.53
2019-05-14T19:09:38.905Z,102899.02
2019-05-14T19:12:08.651Z,102904.30
2019-05-14T19:14:39.095Z,102903.85
2019-05-14T19:17:09.166Z,102904.73
2019-05-14T19:19:38.846Z,102901.18
2019-05-14T19:22:08.135Z,102901.25
2019-05-14T19:24:38.286Z,102905.94
2019-05-14T19:27:09.105Z,102907.41
2019-05-14T19:29:39.641Z,102908.96
2019-05-14T19:32:08.944Z,102911.50
2019-05-14T19:34:38.415Z,102917.34
2019-05-14T19:37:08.275Z,102921.19
2019-05-14T19:39:39.286Z,102919.15
2019-05-14T19:42:08.773Z,102928.41
2019-05-14T19:44:54.236Z,102927.40
2019-05-14T19:47:23.538Z,102930.08
2019-05-14T19:49:53.050Z,102932.83
2019-05-14T19:52:22.339Z,102933.81
2019-05-14T19:54:51.654Z,102935.73
2019-05-14T19:57:20.974Z,102939.42
2019-05-14T19:59:50.274Z,102941.84
2019-05-14T20:02:19.637Z,102932.77
2019-05-14T20:04:48.938Z,102934.80
2019-05-14T20:07:18.225Z,102943.98
2019-05-14T20:09:48.583Z,102940.31
2019-05-14T20:12:18.324Z,102937.71
2019-05-14T20:14:49.255Z,102939.58
2019-05-14T20:17:19.394Z,102938.66
2019-05-14T20:19:49.497Z,102942.19
2019-05-14T20:22:19.186Z,102937.71
2019-05-14T20:24:48.586Z,102945.26
2019-05-14T20:27:18.846Z,102943.44
2019-05-14T20:29:51.323Z,102943.58
2019-05-14T20:32:20.590Z,102944.36
2019-05-14T20:34:49.907Z,102940.84
2019-05-14T20:37:19.194Z,102936.37
2019-05-14T20:39:48.742Z,102936.37
2019-05-14T20:42:18.649Z,102939.55
2019-05-14T20:44:49.138Z,102942.86
2019-05-14T20:47:19.062Z,102938.39
2019-05-14T20:49:48.418Z,102930.70
2019-05-14T20:52:19.338Z,102932.34
2019-05-14T20:54:48.900Z,102921.41
2019-05-14T20:57:26.387Z,102928.00
2019-05-14T20:59:49.767Z,102923.03
2019-05-14T21:02:19.094Z,102928.23
2019-05-14T21:04:54.289Z,102910.79
2019-05-14T21:07:20.818Z,102923.26
2019-05-14T21:09:50.147Z,102917.09
2019-05-14T21:12:19.457Z,102919.22
2019-05-14T21:14:49.354Z,102917.83
2019-05-14T21:17:19.301Z,102908.80
2019-05-14T21:19:49.186Z,102909.73
2019-05-14T21:22:19.253Z,102911.06
2019-05-14T21:24:52.865Z,102910.34
2019-05-14T21:27:19.727Z,102906.66
2019-05-14T21:29:49.044Z,102906.42
2019-05-14T21:32:19.758Z,102910.23
2019-05-14T21:34:49.320Z,102915.20
2019-05-14T21:37:20.170Z,102916.12
2019-05-14T21:39:52.568Z,102911.10
2019-05-14T21:42:21.192Z,102914.42
2019-05-14T21:44:51.564Z,102917.41
2019-05-14T21:47:22.209Z,102912.26
2019-05-14T21:49:51.804Z,102912.86
2019-05-14T21:52:21.131Z,102909.56
2019-05-14T21:54:50.453Z,102906.98
2019-05-14T21:57:19.777Z,102903.09
2019-05-14T21:59:49.084Z,102903.40
2019-05-14T22:02:24.943Z,102900.38
2019-05-14T22:04:49.838Z,102900.25
2019-05-14T22:07:19.169Z,102891.16
2019-05-14T22:09:48.846Z,102897.76
2019-05-14T22:12:20.377Z,102892.68
2019-05-14T22:14:49.201Z,102893.48
2019-05-14T22:17:24.811Z,102889.84
2019-05-14T22:19:55.190Z,102891.91
2019-05-14T22:22:24.533Z,102893.66
2019-05-14T22:24:53.830Z,102891.11
2019-05-14T22:27:23.227Z,102888.94
2019-05-14T22:29:52.530Z,102895.38
2019-05-14T22:32:21.893Z,102889.16
2019-05-14T22:34:51.207Z,102893.18
2019-05-14T22:37:20.572Z,102888.18
2019-05-14T22:39:50.944Z,102889.93
2019-05-14T22:42:20.268Z,102889.26
2019-05-14T22:44:50.376Z,102889.93
2019-05-14T22:47:19.870Z,102887.91
2019-05-14T22:49:49.170Z,102889.46
2019-05-14T22:52:19.018Z,102893.55
2019-05-14T22:54:49.062Z,102892.88
2019-05-14T22:57:18.509Z,102892.23
2019-05-14T22:59:48.643Z,102892.36
2019-05-14T23:02:19.350Z,102886.39
2019-05-14T23:04:49.324Z,102893.66
2019-05-14T23:07:19.052Z,102897.15
2019-05-14T23:09:48.609Z,102892.51
2019-05-14T23:12:17.942Z,102896.20
2019-05-14T23:14:48.693Z,102892.98
2019-05-14T23:17:19.715Z,102891.83
2019-05-14T23:19:50.229Z,102891.86
2019-05-14T23:22:20.620Z,102890.50
2019-05-14T23:24:49.957Z,102885.65
2019-05-14T23:27:19.276Z,102892.83
2019-05-14T23:29:49.124Z,102892.23
2019-05-14T23:32:19.132Z,102888.55
2019-05-14T23:34:48.861Z,102883.13
2019-05-14T23:37:19.182Z,102888.92
2019-05-14T23:39:49.302Z,102889.42
2019-05-14T23:42:18.760Z,102890.00
2019-05-14T23:44:49.241Z,102882.26
2019-05-14T23:47:19.325Z,102884.33
2019-05-14T23:49:48.865Z,102872.42
2019-05-14T23:52:19.354Z,102873.01
2019-05-14T23:54:48.887Z,102872.67
2019-05-14T23:57:18.352Z,102871.75
2019-05-14T23:59:48.303Z,102865.66
